Week-end des Garagnas - Régionale Moyenne Distance (CDL) Pilat (42) - D

Date : 15/10/2011

Place Nom Licence Catégorie Club Temps CN à J-60 Points Différence Nouveau CN
1 DEVRIEUX Naïs 7672 D16 4203RA 0:34:25 5572 6794 +1222 5789
2 BODY Mathilde 10184 D16 7305RA 0:40:54 5038 5717 +679 5245
3 DECHAVANNE Jean-Francois 3461 H60 6911RA 0:41:55 6101 5579 -522 6101
4 BORNARD Julie 9402 D16 7305RA 0:43:31 3351 5374 +2023 3733
5 RINGOT Paul 12358 H14 6913RA 0:46:26 4452 5036 +584 4734
6 THIEVENAZ Roland 9230 H60 3811RA 0:48:52 4609 4785 +176 4874
7 MAISONNEUVE Valentine 16357 D16 4203RA 0:50:54 4358 4594 +236 4484
8 RIVOLLIER Isaline 22451 D16 4201RA 0:52:05 3575 4490 +915 3898
9 GANDON J-Claude 249 H70 6906RA 0:52:12 4159 4480 +321 4190
10 BASSET Fiona 23384 D16 6911RA 0:54:18 3602 4306 +704 3990
11 ANTOINE Alain 1270 H60 2605RA 0:56:13 5088 4160 -928 4960
12 GATY Daniele 841 D55 4203RA 0:57:37 3999 4059 +60 4038
13 MASCARELL Henri 8928 H60 6911RA 1:01:29 5162 3803 -1359 5581
14 RAGACHE Jean-Claude 7147 H60 3811RA 1:02:17 3784 3754 -30 4167
15 COMBET Annie 813 D50 4203RA 1:04:49 4262 3608 -654 4018
16 BONORA Marine 11542 D16 6906RA 1:06:34 3614 3513 -101 3743
17 RAUCOULES Christine 258 D55 3811RA 1:07:37 2892 3458 +566 2916
18 DROIN Solène 17925 D14 4201RA 1:08:16 4356 3425 -931 4634
19 REYNAUD Renée 8868 D50 6307AU 1:08:45 4580 3401 -1179 4514
20 CERET Martine 4597 D55 4203RA 1:10:59 3250 3294 +44 3313
21 MONTERRAT Martine 8512 D50 4203RA 1:13:08 3212 3197 -15 3313
22 ANNE Roger 1673 H60 0111RA 1:13:27 4301 3184 -1117 4262
23 MASSON Michel 4317 H60 2105BO 1:14:15 4071 3149 -922 4102
24 SCHMITT-POUPARD Florence 12056 D55 6913RA 1:15:06 3878 3114 -764 3927
25 ANNE Brigitte 1672 D60 0111RA 1:16:01 3357 3076 -281 3257
26 POCACHARD Jérôme 24842 H35 6911RA 1:17:04 3034 0
27 FERRAND M-Christine 8626 D50 3811RA 1:22:20 2992 2840 -152 3212
28 PLAGNE Christian 19 H60 4204RA 1:26:23 2577 2707 +130 2637
29 GROSJEAN A-Marie 12059 D70 6913RA 1:27:42 3008 2666 -342 2838
30 GUET Martine 11810 D55 6906RA 1:32:31 2885 2528 -357 2843
31 MERCEY Bernard 11746 H70 4201RA 1:34:47 2467 0
32 HELIOT Claude 2349 H70 2604RA 1:51:56 4255 2089 -2166 3772
33 VOUTSINAS Christophe 23779 H35 6906RA 1:52:59 2070 0
34 BONNET-LIGEON Michele 11747 D55 4201RA 2:01:03 1932 0
THIEVENAZ Francoise 19672 D55 3811RA pm 0 0 0
LENFANT Chantal 10264 D50 3811RA pm 2689 0 2945
PLAGNE Eliane 20 D60 4204RA pm 2430 0 2480
KESMEDJIAN Ninon 22673 D16 2607RA pm 1716 0 2488
KERN-GILLARD Elisabe 12399 D50 6911RA pm 0 0
VILLEDIEU Martine 13752 D55 6913RA pm 3791 0 3741
EUZEN J-Paul 16403 H70 6911RA pm 4042 0 3899